sensor_id;sensor_type;location;lat;lon;timestamp;P1;durP1;ratioP1;P2;durP2;ratioP2
46222;SDS011;31943;51.410;7.564;2024-01-15T18:30:34;10.73;;;8.13;;
46222;SDS011;31943;51.410;7.564;2024-01-15T18:33:00;17.38;;;8.98;;
46222;SDS011;31943;51.410;7.564;2024-01-15T18:35:27;13.00;;;8.45;;
46222;SDS011;31943;51.410;7.564;2024-01-15T18:37:53;15.25;;;8.82;;
46222;SDS011;31943;51.410;7.564;2024-01-15T18:40:20;13.20;;;8.32;;
46222;SDS011;31943;51.410;7.564;2024-01-15T18:42:47;11.45;;;8.95;;
46222;SDS011;31943;51.410;7.564;2024-01-15T18:45:12;15.88;;;8.25;;
46222;SDS011;31943;51.410;7.564;2024-01-15T18:47:39;12.57;;;7.22;;
46222;SDS011;31943;51.410;7.564;2024-01-15T18:50:06;20.80;;;10.68;;
46222;SDS011;31943;51.410;7.564;2024-01-15T18:52:32;15.95;;;8.07;;
46222;SDS011;31943;51.410;7.564;2024-01-15T18:54:58;10.75;;;6.82;;
46222;SDS011;31943;51.410;7.564;2024-01-15T18:57:23;13.10;;;6.75;;
46222;SDS011;31943;51.410;7.564;2024-01-15T18:59:49;13.90;;;8.05;;
46222;SDS011;31943;51.410;7.564;2024-01-15T19:02:15;11.10;;;6.43;;
46222;SDS011;31943;51.410;7.564;2024-01-15T19:04:42;10.93;;;7.60;;
46222;SDS011;31943;51.410;7.564;2024-01-15T19:07:12;11.15;;;6.60;;
46222;SDS011;31943;51.410;7.564;2024-01-15T19:09:39;9.32;;;6.13;;
46222;SDS011;31943;51.410;7.564;2024-01-15T19:12:04;14.23;;;7.47;;
46222;SDS011;31943;51.410;7.564;2024-01-15T19:14:31;13.98;;;6.97;;
46222;SDS011;31943;51.410;7.564;2024-01-15T19:16:57;14.18;;;7.70;;
46222;SDS011;31943;51.410;7.564;2024-01-15T19:19:24;10.68;;;6.93;;
46222;SDS011;31943;51.410;7.564;2024-01-15T19:21:52;15.32;;;7.43;;
46222;SDS011;31943;51.410;7.564;2024-01-15T19:24:17;15.93;;;8.13;;
46222;SDS011;31943;51.410;7.564;2024-01-15T19:26:43;16.42;;;7.65;;
46222;SDS011;31943;51.410;7.564;2024-01-15T19:29:09;11.82;;;7.25;;
46222;SDS011;31943;51.410;7.564;2024-01-15T19:31:34;14.48;;;7.45;;
46222;SDS011;31943;51.410;7.564;2024-01-15T19:34:01;10.50;;;6.97;;
46222;SDS011;31943;51.410;7.564;2024-01-15T19:36:30;11.70;;;7.30;;
46222;SDS011;31943;51.410;7.564;2024-01-15T19:38:57;13.77;;;6.97;;
46222;SDS011;31943;51.410;7.564;2024-01-15T19:41:23;9.80;;;6.10;;
46222;SDS011;31943;51.410;7.564;2024-01-15T19:43:52;10.15;;;7.40;;
46222;SDS011;31943;51.410;7.564;2024-01-15T19:46:21;10.88;;;6.47;;
46222;SDS011;31943;51.410;7.564;2024-01-15T19:48:47;14.32;;;7.38;;
46222;SDS011;31943;51.410;7.564;2024-01-15T19:51:13;11.05;;;7.28;;
46222;SDS011;31943;51.410;7.564;2024-01-15T19:53:38;14.27;;;6.63;;
46222;SDS011;31943;51.410;7.564;2024-01-15T19:56:08;10.95;;;6.22;;
46222;SDS011;31943;51.410;7.564;2024-01-15T19:58:34;11.38;;;6.53;;
46222;SDS011;31943;51.410;7.564;2024-01-15T20:00:59;10.57;;;6.20;;
46222;SDS011;31943;51.410;7.564;2024-01-15T20:03:25;12.95;;;6.40;;
46222;SDS011;31943;51.410;7.564;2024-01-15T20:05:51;8.85;;;6.15;;
46222;SDS011;31943;51.410;7.564;2024-01-15T20:08:16;7.85;;;6.15;;
46222;SDS011;31943;51.410;7.564;2024-01-15T20:10:42;12.32;;;6.93;;
46222;SDS011;31943;51.410;7.564;2024-01-15T20:13:10;13.40;;;6.95;;
46222;SDS011;31943;51.410;7.564;2024-01-15T20:15:36;13.45;;;6.60;;
46222;SDS011;31943;51.410;7.564;2024-01-15T20:18:02;11.43;;;6.63;;
46222;SDS011;31943;51.410;7.564;2024-01-15T20:20:28;9.43;;;6.35;;
46222;SDS011;31943;51.410;7.564;2024-01-15T20:22:54;11.98;;;6.03;;
46222;SDS011;31943;51.410;7.564;2024-01-15T20:25:20;10.85;;;6.05;;
46222;SDS011;31943;51.410;7.564;2024-01-15T20:27:45;9.75;;;5.70;;
46222;SDS011;31943;51.410;7.564;2024-01-15T20:30:15;13.52;;;6.38;;
46222;SDS011;31943;51.410;7.564;2024-01-15T20:32:41;10.25;;;5.32;;
46222;SDS011;31943;51.410;7.564;2024-01-15T20:35:07;13.32;;;6.75;;
46222;SDS011;31943;51.410;7.564;2024-01-15T20:37:33;15.15;;;6.55;;
46222;SDS011;31943;51.410;7.564;2024-01-15T20:39:59;11.75;;;5.95;;
46222;SDS011;31943;51.410;7.564;2024-01-15T20:42:25;8.82;;;5.47;;
46222;SDS011;31943;51.410;7.564;2024-01-15T20:44:51;13.20;;;5.82;;
46222;SDS011;31943;51.410;7.564;2024-01-15T20:47:18;12.43;;;6.07;;
46222;SDS011;31943;51.410;7.564;2024-01-15T20:49:45;9.95;;;6.75;;
46222;SDS011;31943;51.410;7.564;2024-01-15T20:52:10;11.70;;;6.43;;
46222;SDS011;31943;51.410;7.564;2024-01-15T20:54:36;12.85;;;7.68;;
46222;SDS011;31943;51.410;7.564;2024-01-15T20:57:02;11.18;;;7.55;;
46222;SDS011;31943;51.410;7.564;2024-01-15T20:59:28;12.15;;;7.70;;
46222;SDS011;31943;51.410;7.564;2024-01-15T21:01:55;16.50;;;8.20;;
46222;SDS011;31943;51.410;7.564;2024-01-15T21:04:23;13.32;;;9.00;;
46222;SDS011;31943;51.410;7.564;2024-01-15T21:06:49;11.93;;;7.82;;
46222;SDS011;31943;51.410;7.564;2024-01-15T21:09:15;16.20;;;8.75;;
46222;SDS011;31943;51.410;7.564;2024-01-15T21:11:40;14.93;;;8.55;;
46222;SDS011;31943;51.410;7.564;2024-01-15T21:14:06;13.88;;;8.15;;
46222;SDS011;31943;51.410;7.564;2024-01-15T21:16:32;12.85;;;8.57;;
46222;SDS011;31943;51.410;7.564;2024-01-15T21:18:57;10.38;;;7.57;;
46222;SDS011;31943;51.410;7.564;2024-01-15T21:21:25;14.40;;;8.15;;
46222;SDS011;31943;51.410;7.564;2024-01-15T21:23:50;14.52;;;7.90;;
46222;SDS011;31943;51.410;7.564;2024-01-15T21:26:16;15.05;;;7.82;;
46222;SDS011;31943;51.410;7.564;2024-01-15T21:28:44;15.57;;;9.25;;
46222;SDS011;31943;51.410;7.564;2024-01-15T21:31:10;13.82;;;7.90;;
46222;SDS011;31943;51.410;7.564;2024-01-15T21:33:36;14.40;;;7.22;;
46222;SDS011;31943;51.410;7.564;2024-01-15T21:36:02;14.63;;;7.95;;
46222;SDS011;31943;51.410;7.564;2024-01-15T21:38:30;13.93;;;8.00;;
46222;SDS011;31943;51.410;7.564;2024-01-15T21:40:56;16.55;;;8.75;;
46222;SDS011;31943;51.410;7.564;2024-01-15T21:43:22;15.52;;;8.18;;
46222;SDS011;31943;51.410;7.564;2024-01-15T21:45:47;16.00;;;7.43;;
46222;SDS011;31943;51.410;7.564;2024-01-15T21:48:16;14.75;;;7.88;;
46222;SDS011;31943;51.410;7.564;2024-01-15T21:50:42;14.20;;;6.93;;
46222;SDS011;31943;51.410;7.564;2024-01-15T21:53:08;15.43;;;7.38;;
46222;SDS011;31943;51.410;7.564;2024-01-15T21:55:36;11.88;;;6.82;;
46222;SDS011;31943;51.410;7.564;2024-01-15T21:58:02;16.83;;;6.28;;
46222;SDS011;31943;51.410;7.564;2024-01-15T22:00:28;12.35;;;6.30;;
46222;SDS011;31943;51.410;7.564;2024-01-15T22:02:53;17.17;;;9.63;;
46222;SDS011;31943;51.410;7.564;2024-01-15T22:05:20;14.65;;;8.20;;
46222;SDS011;31943;51.410;7.564;2024-01-15T22:07:45;11.50;;;8.05;;
46222;SDS011;31943;51.410;7.564;2024-01-15T22:10:11;12.38;;;8.40;;
46222;SDS011;31943;51.410;7.564;2024-01-15T22:12:39;15.15;;;8.50;;
46222;SDS011;31943;51.410;7.564;2024-01-15T22:15:05;18.60;;;10.25;;
46222;SDS011;31943;51.410;7.564;2024-01-15T22:17:31;10.52;;;8.82;;
46222;SDS011;31943;51.410;7.564;2024-01-15T22:19:57;14.30;;;9.15;;
46222;SDS011;31943;51.410;7.564;2024-01-15T22:22:24;14.77;;;9.75;;
46222;SDS011;31943;51.410;7.564;2024-01-15T22:24:49;17.08;;;10.48;;
46222;SDS011;31943;51.410;7.564;2024-01-15T22:27:15;16.00;;;10.57;;
46222;SDS011;31943;51.410;7.564;2024-01-15T22:29:42;15.50;;;10.10;;
46222;SDS011;31943;51.410;7.564;2024-01-15T22:32:09;14.80;;;10.15;;
46222;SDS011;31943;51.410;7.564;2024-01-15T22:34:35;15.40;;;9.50;;
46222;SDS011;31943;51.410;7.564;2024-01-15T22:37:00;14.95;;;9.98;;
46222;SDS011;31943;51.410;7.564;2024-01-15T22:39:27;17.20;;;10.90;;
46222;SDS011;31943;51.410;7.564;2024-01-15T22:41:52;14.73;;;9.85;;
46222;SDS011;31943;51.410;7.564;2024-01-15T22:44:18;13.32;;;9.57;;
46222;SDS011;31943;51.410;7.564;2024-01-15T22:46:45;15.85;;;10.88;;
46222;SDS011;31943;51.410;7.564;2024-01-15T22:49:11;15.30;;;11.02;;
46222;SDS011;31943;51.410;7.564;2024-01-15T22:51:36;17.35;;;10.70;;
46222;SDS011;31943;51.410;7.564;2024-01-15T22:54:02;15.88;;;10.65;;
46222;SDS011;31943;51.410;7.564;2024-01-15T22:56:27;14.30;;;10.65;;
46222;SDS011;31943;51.410;7.564;2024-01-15T22:58:53;14.52;;;10.82;;
46222;SDS011;31943;51.410;7.564;2024-01-15T23:01:19;18.27;;;10.75;;
46222;SDS011;31943;51.410;7.564;2024-01-15T23:03:47;14.05;;;11.05;;
46222;SDS011;31943;51.410;7.564;2024-01-15T23:06:16;14.63;;;9.77;;
46222;SDS011;31943;51.410;7.564;2024-01-15T23:08:43;14.15;;;9.52;;
46222;SDS011;31943;51.410;7.564;2024-01-15T23:11:08;14.48;;;9.15;;
46222;SDS011;31943;51.410;7.564;2024-01-15T23:13:34;15.40;;;8.85;;
46222;SDS011;31943;51.410;7.564;2024-01-15T23:15:59;13.75;;;7.65;;
46222;SDS011;31943;51.410;7.564;2024-01-15T23:18:25;12.98;;;7.45;;
46222;SDS011;31943;51.410;7.564;2024-01-15T23:20:53;13.80;;;8.30;;
46222;SDS011;31943;51.410;7.564;2024-01-15T23:23:19;12.40;;;7.43;;
46222;SDS011;31943;51.410;7.564;2024-01-15T23:25:44;12.25;;;7.20;;
46222;SDS011;31943;51.410;7.564;2024-01-15T23:28:10;12.73;;;8.10;;
46222;SDS011;31943;51.410;7.564;2024-01-15T23:30:36;15.25;;;9.32;;
46222;SDS011;31943;51.410;7.564;2024-01-15T23:33:01;15.90;;;8.80;;
46222;SDS011;31943;51.410;7.564;2024-01-15T23:35:27;13.65;;;9.10;;
46222;SDS011;31943;51.410;7.564;2024-01-15T23:37:54;16.27;;;9.82;;
46222;SDS011;31943;51.410;7.564;2024-01-15T23:40:20;14.82;;;9.80;;
46222;SDS011;31943;51.410;7.564;2024-01-15T23:42:45;17.83;;;11.00;;
46222;SDS011;31943;51.410;7.564;2024-01-15T23:45:11;16.20;;;10.10;;
46222;SDS011;31943;51.410;7.564;2024-01-15T23:47:36;15.90;;;10.80;;
46222;SDS011;31943;51.410;7.564;2024-01-15T23:50:02;15.80;;;10.32;;
46222;SDS011;31943;51.410;7.564;2024-01-15T23:52:28;14.00;;;10.45;;
46222;SDS011;31943;51.410;7.564;2024-01-15T23:54:55;17.40;;;10.90;;
46222;SDS011;31943;51.410;7.564;2024-01-15T23:57:21;18.42;;;10.32;;
46222;SDS011;31943;51.410;7.564;2024-01-15T23:59:47;14.18;;;8.90;;
